sensor_id;sensor_type;location;lat;lon;timestamp;P1;durP1;ratioP1;P2;durP2;ratioP2
9852;SDS011;4965;43.238;27.864;2022-11-18T00:00:07;5.22;;;4.72;;
9852;SDS011;4965;43.238;27.864;2022-11-18T00:02:36;6.38;;;4.20;;
9852;SDS011;4965;43.238;27.864;2022-11-18T00:05:03;5.93;;;4.43;;
9852;SDS011;4965;43.238;27.864;2022-11-18T00:07:30;5.30;;;4.80;;
9852;SDS011;4965;43.238;27.864;2022-11-18T00:09:57;5.72;;;5.18;;
9852;SDS011;4965;43.238;27.864;2022-11-18T00:12:24;6.47;;;5.72;;
9852;SDS011;4965;43.238;27.864;2022-11-18T00:15:09;5.82;;;5.32;;
9852;SDS011;4965;43.238;27.864;2022-11-18T00:17:37;5.05;;;4.60;;
9852;SDS011;4965;43.238;27.864;2022-11-18T00:20:05;5.43;;;4.82;;
9852;SDS011;4965;43.238;27.864;2022-11-18T00:22:32;5.47;;;4.97;;
9852;SDS011;4965;43.238;27.864;2022-11-18T00:24:59;5.47;;;4.57;;
9852;SDS011;4965;43.238;27.864;2022-11-18T00:27:28;5.78;;;5.05;;
9852;SDS011;4965;43.238;27.864;2022-11-18T00:29:55;5.13;;;4.63;;
9852;SDS011;4965;43.238;27.864;2022-11-18T00:32:22;5.78;;;4.47;;
9852;SDS011;4965;43.238;27.864;2022-11-18T00:34:50;6.32;;;4.93;;
9852;SDS011;4965;43.238;27.864;2022-11-18T00:37:17;5.60;;;5.10;;
9852;SDS011;4965;43.238;27.864;2022-11-18T00:39:44;5.90;;;5.25;;
9852;SDS011;4965;43.238;27.864;2022-11-18T00:42:11;5.57;;;5.07;;
9852;SDS011;4965;43.238;27.864;2022-11-18T00:44:55;7.85;;;5.07;;
9852;SDS011;4965;43.238;27.864;2022-11-18T00:47:22;6.40;;;5.80;;
9852;SDS011;4965;43.238;27.864;2022-11-18T00:49:51;7.53;;;5.35;;
9852;SDS011;4965;43.238;27.864;2022-11-18T00:52:18;5.90;;;5.30;;
9852;SDS011;4965;43.238;27.864;2022-11-18T00:54:45;7.15;;;6.18;;
9852;SDS011;4965;43.238;27.864;2022-11-18T00:57:11;9.25;;;6.28;;
9852;SDS011;4965;43.238;27.864;2022-11-18T00:59:38;9.48;;;8.48;;
9852;SDS011;4965;43.238;27.864;2022-11-18T01:02:05;12.48;;;10.25;;
9852;SDS011;4965;43.238;27.864;2022-11-18T01:04:32;11.82;;;8.25;;
9852;SDS011;4965;43.238;27.864;2022-11-18T01:07:01;8.15;;;7.13;;
9852;SDS011;4965;43.238;27.864;2022-11-18T01:09:28;8.23;;;6.28;;
9852;SDS011;4965;43.238;27.864;2022-11-18T01:11:55;9.15;;;4.93;;
9852;SDS011;4965;43.238;27.864;2022-11-18T01:14:39;7.03;;;5.10;;
9852;SDS011;4965;43.238;27.864;2022-11-18T01:17:06;5.85;;;4.93;;
9852;SDS011;4965;43.238;27.864;2022-11-18T01:19:33;5.50;;;4.88;;
9852;SDS011;4965;43.238;27.864;2022-11-18T01:22:02;9.10;;;4.85;;
9852;SDS011;4965;43.238;27.864;2022-11-18T01:24:28;5.28;;;4.15;;
9852;SDS011;4965;43.238;27.864;2022-11-18T01:26:56;4.70;;;4.25;;
9852;SDS011;4965;43.238;27.864;2022-11-18T01:29:23;5.20;;;4.32;;
9852;SDS011;4965;43.238;27.864;2022-11-18T01:32:07;4.78;;;4.32;;
9852;SDS011;4965;43.238;27.864;2022-11-18T01:34:34;4.75;;;4.15;;
9852;SDS011;4965;43.238;27.864;2022-11-18T01:37:02;6.13;;;4.30;;
9852;SDS011;4965;43.238;27.864;2022-11-18T01:39:29;4.85;;;4.25;;
9852;SDS011;4965;43.238;27.864;2022-11-18T01:41:56;4.55;;;4.15;;
9852;SDS011;4965;43.238;27.864;2022-11-18T01:47:21;7.00;;;4.18;;
9852;SDS011;4965;43.238;27.864;2022-11-18T01:49:50;4.45;;;4.05;;
9852;SDS011;4965;43.238;27.864;2022-11-18T01:52:18;5.00;;;4.30;;
9852;SDS011;4965;43.238;27.864;2022-11-18T01:54:47;7.35;;;3.85;;
9852;SDS011;4965;43.238;27.864;2022-11-18T01:57:19;4.40;;;3.75;;
9852;SDS011;4965;43.238;27.864;2022-11-18T01:59:48;4.90;;;4.18;;
9852;SDS011;4965;43.238;27.864;2022-11-18T02:02:19;4.40;;;4.00;;
9852;SDS011;4965;43.238;27.864;2022-11-18T02:04:47;7.10;;;4.53;;
9852;SDS011;4965;43.238;27.864;2022-11-18T02:07:19;4.13;;;3.78;;
9852;SDS011;4965;43.238;27.864;2022-11-18T02:09:46;4.97;;;4.25;;
9852;SDS011;4965;43.238;27.864;2022-11-18T02:12:13;5.72;;;4.22;;
9852;SDS011;4965;43.238;27.864;2022-11-18T02:14:40;5.57;;;4.35;;
9852;SDS011;4965;43.238;27.864;2022-11-18T02:17:12;3.88;;;3.47;;
9852;SDS011;4965;43.238;27.864;2022-11-18T02:19:51;4.75;;;3.78;;
9852;SDS011;4965;43.238;27.864;2022-11-18T02:22:45;4.10;;;3.70;;
9852;SDS011;4965;43.238;27.864;2022-11-18T02:25:33;4.07;;;3.67;;
9852;SDS011;4965;43.238;27.864;2022-11-18T02:28:19;5.38;;;3.72;;
9852;SDS011;4965;43.238;27.864;2022-11-18T02:30:59;5.13;;;3.97;;
9852;SDS011;4965;43.238;27.864;2022-11-18T02:33:31;5.28;;;4.13;;
9852;SDS011;4965;43.238;27.864;2022-11-18T02:36:04;4.88;;;4.38;;
9852;SDS011;4965;43.238;27.864;2022-11-18T02:38:40;7.57;;;4.40;;
9852;SDS011;4965;43.238;27.864;2022-11-18T02:41:12;6.57;;;5.32;;
9852;SDS011;4965;43.238;27.864;2022-11-18T02:43:42;11.40;;;5.82;;
9852;SDS011;4965;43.238;27.864;2022-11-18T02:46:15;9.48;;;5.57;;
9852;SDS011;4965;43.238;27.864;2022-11-18T02:48:46;8.95;;;6.28;;
9852;SDS011;4965;43.238;27.864;2022-11-18T02:51:16;5.95;;;5.35;;
9852;SDS011;4965;43.238;27.864;2022-11-18T02:53:46;7.05;;;5.55;;
9852;SDS011;4965;43.238;27.864;2022-11-18T02:56:16;7.68;;;5.70;;
9852;SDS011;4965;43.238;27.864;2022-11-18T02:58:45;5.88;;;5.28;;
9852;SDS011;4965;43.238;27.864;2022-11-18T03:01:15;6.65;;;5.72;;
9852;SDS011;4965;43.238;27.864;2022-11-18T03:03:48;5.85;;;5.15;;
9852;SDS011;4965;43.238;27.864;2022-11-18T03:06:18;5.18;;;4.15;;
9852;SDS011;4965;43.238;27.864;2022-11-18T03:08:57;6.50;;;4.22;;
9852;SDS011;4965;43.238;27.864;2022-11-18T03:11:32;10.68;;;4.88;;
9852;SDS011;4965;43.238;27.864;2022-11-18T03:14:07;6.00;;;4.82;;
9852;SDS011;4965;43.238;27.864;2022-11-18T03:16:44;6.68;;;4.38;;
9852;SDS011;4965;43.238;27.864;2022-11-18T03:19:19;9.25;;;4.35;;
9852;SDS011;4965;43.238;27.864;2022-11-18T03:21:51;10.93;;;5.93;;
9852;SDS011;4965;43.238;27.864;2022-11-18T03:24:29;8.45;;;7.40;;
9852;SDS011;4965;43.238;27.864;2022-11-18T03:26:59;12.82;;;9.13;;
9852;SDS011;4965;43.238;27.864;2022-11-18T03:29:36;19.40;;;15.85;;
9852;SDS011;4965;43.238;27.864;2022-11-18T03:32:09;19.25;;;11.88;;
9852;SDS011;4965;43.238;27.864;2022-11-18T03:34:41;11.45;;;7.15;;
9852;SDS011;4965;43.238;27.864;2022-11-18T03:37:12;6.55;;;5.85;;
9852;SDS011;4965;43.238;27.864;2022-11-18T03:39:42;5.57;;;4.95;;
9852;SDS011;4965;43.238;27.864;2022-11-18T03:42:14;5.25;;;4.43;;
9852;SDS011;4965;43.238;27.864;2022-11-18T03:44:50;5.60;;;4.72;;
9852;SDS011;4965;43.238;27.864;2022-11-18T03:47:30;6.35;;;5.07;;
9852;SDS011;4965;43.238;27.864;2022-11-18T03:50:00;7.07;;;5.70;;
9852;SDS011;4965;43.238;27.864;2022-11-18T03:52:32;7.55;;;6.15;;
9852;SDS011;4965;43.238;27.864;2022-11-18T03:55:03;10.82;;;5.28;;
9852;SDS011;4965;43.238;27.864;2022-11-18T03:57:37;11.18;;;6.32;;
9852;SDS011;4965;43.238;27.864;2022-11-18T04:00:12;10.48;;;7.38;;
9852;SDS011;4965;43.238;27.864;2022-11-18T04:02:42;11.88;;;6.80;;
9852;SDS011;4965;43.238;27.864;2022-11-18T04:05:11;8.68;;;7.05;;
9852;SDS011;4965;43.238;27.864;2022-11-18T04:07:41;8.40;;;6.20;;
9852;SDS011;4965;43.238;27.864;2022-11-18T04:10:17;7.22;;;6.00;;
9852;SDS011;4965;43.238;27.864;2022-11-18T04:12:46;13.90;;;6.05;;
9852;SDS011;4965;43.238;27.864;2022-11-18T04:15:17;6.82;;;5.18;;
9852;SDS011;4965;43.238;27.864;2022-11-18T04:17:46;17.35;;;6.20;;
9852;SDS011;4965;43.238;27.864;2022-11-18T04:20:13;7.35;;;4.50;;
9852;SDS011;4965;43.238;27.864;2022-11-18T04:22:43;7.55;;;5.30;;
9852;SDS011;4965;43.238;27.864;2022-11-18T04:25:10;9.00;;;4.28;;
9852;SDS011;4965;43.238;27.864;2022-11-18T04:27:37;5.03;;;4.13;;
9852;SDS011;4965;43.238;27.864;2022-11-18T04:30:04;3.40;;;3.10;;
9852;SDS011;4965;43.238;27.864;2022-11-18T04:32:33;14.20;;;4.03;;
9852;SDS011;4965;43.238;27.864;2022-11-18T04:35:01;4.63;;;3.75;;
9852;SDS011;4965;43.238;27.864;2022-11-18T04:37:28;5.45;;;4.22;;
9852;SDS011;4965;43.238;27.864;2022-11-18T04:39:55;3.88;;;3.58;;
9852;SDS011;4965;43.238;27.864;2022-11-18T04:42:23;4.38;;;3.92;;
9852;SDS011;4965;43.238;27.864;2022-11-18T04:44:50;6.40;;;3.65;;
9852;SDS011;4965;43.238;27.864;2022-11-18T04:47:17;5.47;;;3.70;;
9852;SDS011;4965;43.238;27.864;2022-11-18T04:49:44;4.68;;;3.78;;
9852;SDS011;4965;43.238;27.864;2022-11-18T04:52:12;8.77;;;4.30;;
9852;SDS011;4965;43.238;27.864;2022-11-18T04:54:39;5.47;;;4.57;;
9852;SDS011;4965;43.238;27.864;2022-11-18T04:57:06;7.35;;;4.60;;
9852;SDS011;4965;43.238;27.864;2022-11-18T04:59:33;5.50;;;4.50;;
9852;SDS011;4965;43.238;27.864;2022-11-18T05:02:00;10.63;;;5.68;;
9852;SDS011;4965;43.238;27.864;2022-11-18T05:04:28;13.75;;;7.10;;
9852;SDS011;4965;43.238;27.864;2022-11-18T05:07:01;10.90;;;7.00;;
9852;SDS011;4965;43.238;27.864;2022-11-18T05:09:33;12.98;;;7.70;;
9852;SDS011;4965;43.238;27.864;2022-11-18T05:12:00;14.73;;;7.78;;
9852;SDS011;4965;43.238;27.864;2022-11-18T05:14:44;9.55;;;7.28;;
9852;SDS011;4965;43.238;27.864;2022-11-18T05:17:11;8.82;;;7.90;;
9852;SDS011;4965;43.238;27.864;2022-11-18T05:19:38;11.85;;;7.15;;
9852;SDS011;4965;43.238;27.864;2022-11-18T05:22:06;10.48;;;6.22;;
9852;SDS011;4965;43.238;27.864;2022-11-18T05:24:34;8.73;;;5.93;;
9852;SDS011;4965;43.238;27.864;2022-11-18T05:27:01;10.20;;;5.60;;
9852;SDS011;4965;43.238;27.864;2022-11-18T05:29:28;11.57;;;5.43;;
9852;SDS011;4965;43.238;27.864;2022-11-18T05:31:55;5.47;;;4.90;;
9852;SDS011;4965;43.238;27.864;2022-11-18T05:34:22;7.53;;;5.10;;
9852;SDS011;4965;43.238;27.864;2022-11-18T05:36:49;7.82;;;4.55;;
9852;SDS011;4965;43.238;27.864;2022-11-18T05:39:16;6.20;;;4.18;;
9852;SDS011;4965;43.238;27.864;2022-11-18T05:41:45;6.75;;;4.20;;
9852;SDS011;4965;43.238;27.864;2022-11-18T05:44:29;6.47;;;3.80;;
9852;SDS011;4965;43.238;27.864;2022-11-18T05:46:56;6.47;;;4.05;;
9852;SDS011;4965;43.238;27.864;2022-11-18T05:49:24;6.95;;;3.85;;
9852;SDS011;4965;43.238;27.864;2022-11-18T05:51:51;14.95;;;4.82;;
9852;SDS011;4965;43.238;27.864;2022-11-18T05:54:18;5.82;;;3.97;;
9852;SDS011;4965;43.238;27.864;2022-11-18T05:56:47;15.00;;;4.18;;
9852;SDS011;4965;43.238;27.864;2022-11-18T05:59:14;3.67;;;3.38;;
9852;SDS011;4965;43.238;27.864;2022-11-18T06:01:42;10.00;;;4.03;;
9852;SDS011;4965;43.238;27.864;2022-11-18T06:04:14;4.18;;;3.63;;
9852;SDS011;4965;43.238;27.864;2022-11-18T06:06:43;3.42;;;2.78;;
9852;SDS011;4965;43.238;27.864;2022-11-18T06:09:13;4.50;;;2.95;;
9852;SDS011;4965;43.238;27.864;2022-11-18T06:11:45;9.75;;;3.47;;
9852;SDS011;4965;43.238;27.864;2022-11-18T06:14:18;14.98;;;4.45;;
9852;SDS011;4965;43.238;27.864;2022-11-18T06:16:49;10.48;;;3.70;;
9852;SDS011;4965;43.238;27.864;2022-11-18T06:19:19;5.88;;;4.68;;
9852;SDS011;4965;43.238;27.864;2022-11-18T06:21:46;4.30;;;3.85;;
9852;SDS011;4965;43.238;27.864;2022-11-18T06:24:14;12.27;;;4.10;;
9852;SDS011;4965;43.238;27.864;2022-11-18T06:26:42;9.40;;;3.97;;
9852;SDS011;4965;43.238;27.864;2022-11-18T06:29:12;8.10;;;4.40;;
9852;SDS011;4965;43.238;27.864;2022-11-18T06:31:42;64.47;;;15.88;;
9852;SDS011;4965;43.238;27.864;2022-11-18T06:34:09;70.20;;;16.48;;
9852;SDS011;4965;43.238;27.864;2022-11-18T06:36:36;63.38;;;16.65;;
9852;SDS011;4965;43.238;27.864;2022-11-18T06:39:03;56.60;;;15.88;;
9852;SDS011;4965;43.238;27.864;2022-11-18T06:41:30;42.63;;;14.43;;
9852;SDS011;4965;43.238;27.864;2022-11-18T06:43:57;31.33;;;12.98;;
9852;SDS011;4965;43.238;27.864;2022-11-18T06:46:25;42.35;;;12.85;;
9852;SDS011;4965;43.238;27.864;2022-11-18T06:49:09;35.83;;;11.32;;
9852;SDS011;4965;43.238;27.864;2022-11-18T06:51:36;26.52;;;9.02;;
9852;SDS011;4965;43.238;27.864;2022-11-18T06:54:03;27.70;;;10.70;;
9852;SDS011;4965;43.238;27.864;2022-11-18T06:56:30;24.33;;;11.32;;
9852;SDS011;4965;43.238;27.864;2022-11-18T06:58:57;27.48;;;11.25;;
9852;SDS011;4965;43.238;27.864;2022-11-18T07:01:26;25.10;;;10.55;;
9852;SDS011;4965;43.238;27.864;2022-11-18T07:03:54;27.70;;;10.65;;
9852;SDS011;4965;43.238;27.864;2022-11-18T07:06:24;26.70;;;12.63;;
9852;SDS011;4965;43.238;27.864;2022-11-18T07:08:52;24.08;;;11.95;;
9852;SDS011;4965;43.238;27.864;2022-11-18T07:11:21;38.53;;;13.32;;
9852;SDS011;4965;43.238;27.864;2022-11-18T07:13:49;33.15;;;14.10;;
9852;SDS011;4965;43.238;27.864;2022-11-18T07:16:17;28.15;;;12.43;;
9852;SDS011;4965;43.238;27.864;2022-11-18T07:18:47;26.15;;;13.63;;
9852;SDS011;4965;43.238;27.864;2022-11-18T07:21:16;31.35;;;13.70;;
9852;SDS011;4965;43.238;27.864;2022-11-18T07:23:44;35.47;;;14.13;;
9852;SDS011;4965;43.238;27.864;2022-11-18T07:26:11;28.02;;;15.07;;
9852;SDS011;4965;43.238;27.864;2022-11-18T07:28:39;44.63;;;17.70;;
9852;SDS011;4965;43.238;27.864;2022-11-18T07:31:07;45.20;;;18.27;;
9852;SDS011;4965;43.238;27.864;2022-11-18T07:33:36;60.30;;;20.73;;
9852;SDS011;4965;43.238;27.864;2022-11-18T07:36:06;38.05;;;20.27;;
9852;SDS011;4965;43.238;27.864;2022-11-18T07:38:35;48.53;;;20.75;;
9852;SDS011;4965;43.238;27.864;2022-11-18T07:41:03;53.10;;;20.85;;
9852;SDS011;4965;43.238;27.864;2022-11-18T07:43:31;42.55;;;19.45;;
9852;SDS011;4965;43.238;27.864;2022-11-18T07:46:07;51.80;;;20.80;;
9852;SDS011;4965;43.238;27.864;2022-11-18T07:48:35;45.72;;;18.98;;
9852;SDS011;4965;43.238;27.864;2022-11-18T07:51:02;37.75;;;19.30;;
9852;SDS011;4965;43.238;27.864;2022-11-18T07:53:30;26.52;;;15.93;;
9852;SDS011;4965;43.238;27.864;2022-11-18T07:56:01;33.20;;;17.13;;
9852;SDS011;4965;43.238;27.864;2022-11-18T07:58:28;37.47;;;16.00;;
9852;SDS011;4965;43.238;27.864;2022-11-18T08:00:55;33.65;;;17.27;;
9852;SDS011;4965;43.238;27.864;2022-11-18T08:03:24;35.28;;;14.18;;
9852;SDS011;4965;43.238;27.864;2022-11-18T08:05:52;34.55;;;13.82;;
9852;SDS011;4965;43.238;27.864;2022-11-18T08:08:19;30.20;;;14.35;;
9852;SDS011;4965;43.238;27.864;2022-11-18T08:10:48;20.40;;;11.48;;
9852;SDS011;4965;43.238;27.864;2022-11-18T08:13:15;25.23;;;11.30;;
9852;SDS011;4965;43.238;27.864;2022-11-18T08:15:42;28.05;;;12.10;;
9852;SDS011;4965;43.238;27.864;2022-11-18T08:18:09;16.05;;;8.80;;
9852;SDS011;4965;43.238;27.864;2022-11-18T08:20:36;16.02;;;9.55;;
9852;SDS011;4965;43.238;27.864;2022-11-18T08:23:03;16.10;;;8.48;;
9852;SDS011;4965;43.238;27.864;2022-11-18T08:25:30;16.25;;;8.43;;
9852;SDS011;4965;43.238;27.864;2022-11-18T08:27:58;22.08;;;8.05;;
9852;SDS011;4965;43.238;27.864;2022-11-18T08:30:25;13.50;;;8.15;;
9852;SDS011;4965;43.238;27.864;2022-11-18T08:32:54;13.68;;;7.68;;
9852;SDS011;4965;43.238;27.864;2022-11-18T08:35:21;9.77;;;6.97;;
9852;SDS011;4965;43.238;27.864;2022-11-18T08:37:50;13.57;;;7.55;;
9852;SDS011;4965;43.238;27.864;2022-11-18T08:40:17;11.57;;;7.60;;
9852;SDS011;4965;43.238;27.864;2022-11-18T08:42:45;14.00;;;8.70;;
9852;SDS011;4965;43.238;27.864;2022-11-18T08:45:19;16.10;;;9.90;;
9852;SDS011;4965;43.238;27.864;2022-11-18T08:47:45;14.68;;;8.80;;
9852;SDS011;4965;43.238;27.864;2022-11-18T08:50:12;11.13;;;8.20;;
9852;SDS011;4965;43.238;27.864;2022-11-18T08:52:39;17.40;;;10.73;;
9852;SDS011;4965;43.238;27.864;2022-11-18T08:55:06;14.90;;;6.85;;
9852;SDS011;4965;43.238;27.864;2022-11-18T08:57:33;9.32;;;6.63;;
9852;SDS011;4965;43.238;27.864;2022-11-18T09:00:00;7.95;;;6.25;;
9852;SDS011;4965;43.238;27.864;2022-11-18T09:02:29;11.18;;;6.60;;
9852;SDS011;4965;43.238;27.864;2022-11-18T09:04:56;7.13;;;5.47;;
9852;SDS011;4965;43.238;27.864;2022-11-18T09:07:23;13.27;;;5.95;;
9852;SDS011;4965;43.238;27.864;2022-11-18T09:09:50;11.07;;;5.70;;
9852;SDS011;4965;43.238;27.864;2022-11-18T09:12:16;8.43;;;6.07;;
9852;SDS011;4965;43.238;27.864;2022-11-18T09:14:43;6.13;;;5.53;;
9852;SDS011;4965;43.238;27.864;2022-11-18T09:17:11;12.95;;;6.10;;
9852;SDS011;4965;43.238;27.864;2022-11-18T09:19:39;8.98;;;6.25;;
9852;SDS011;4965;43.238;27.864;2022-11-18T09:22:07;7.55;;;6.00;;
9852;SDS011;4965;43.238;27.864;2022-11-18T09:24:34;12.20;;;6.10;;
9852;SDS011;4965;43.238;27.864;2022-11-18T09:27:01;9.60;;;7.07;;
9852;SDS011;4965;43.238;27.864;2022-11-18T09:29:29;8.90;;;6.25;;
9852;SDS011;4965;43.238;27.864;2022-11-18T09:31:56;8.45;;;6.70;;
9852;SDS011;4965;43.238;27.864;2022-11-18T09:34:26;9.93;;;6.78;;
9852;SDS011;4965;43.238;27.864;2022-11-18T09:36:55;10.15;;;6.68;;
9852;SDS011;4965;43.238;27.864;2022-11-18T09:39:21;8.70;;;6.50;;
9852;SDS011;4965;43.238;27.864;2022-11-18T09:41:51;12.35;;;6.80;;
9852;SDS011;4965;43.238;27.864;2022-11-18T09:44:32;7.68;;;6.32;;
9852;SDS011;4965;43.238;27.864;2022-11-18T09:47:13;12.57;;;7.80;;
9852;SDS011;4965;43.238;27.864;2022-11-18T09:49:50;13.15;;;8.00;;
9852;SDS011;4965;43.238;27.864;2022-11-18T09:52:19;14.90;;;8.50;;
9852;SDS011;4965;43.238;27.864;2022-11-18T09:54:49;12.73;;;7.95;;
9852;SDS011;4965;43.238;27.864;2022-11-18T09:57:18;12.38;;;8.55;;
9852;SDS011;4965;43.238;27.864;2022-11-18T09:59:46;23.40;;;8.48;;
9852;SDS011;4965;43.238;27.864;2022-11-18T10:02:21;15.57;;;8.18;;
9852;SDS011;4965;43.238;27.864;2022-11-18T10:04:54;13.27;;;8.02;;
9852;SDS011;4965;43.238;27.864;2022-11-18T10:07:25;9.60;;;7.90;;
9852;SDS011;4965;43.238;27.864;2022-11-18T10:10:01;10.80;;;8.48;;
9852;SDS011;4965;43.238;27.864;2022-11-18T10:12:35;18.70;;;8.68;;
9852;SDS011;4965;43.238;27.864;2022-11-18T10:15:11;15.43;;;8.30;;
9852;SDS011;4965;43.238;27.864;2022-11-18T10:17:49;12.38;;;8.60;;
9852;SDS011;4965;43.238;27.864;2022-11-18T10:20:30;9.40;;;8.35;;
9852;SDS011;4965;43.238;27.864;2022-11-18T10:23:10;14.18;;;8.65;;
9852;SDS011;4965;43.238;27.864;2022-11-18T10:25:42;13.50;;;8.70;;
9852;SDS011;4965;43.238;27.864;2022-11-18T10:28:14;14.93;;;8.63;;
9852;SDS011;4965;43.238;27.864;2022-11-18T10:30:43;13.95;;;8.43;;
9852;SDS011;4965;43.238;27.864;2022-11-18T10:33:18;15.77;;;8.60;;
9852;SDS011;4965;43.238;27.864;2022-11-18T10:36:07;18.65;;;9.05;;
9852;SDS011;4965;43.238;27.864;2022-11-18T10:38:46;13.32;;;8.88;;
9852;SDS011;4965;43.238;27.864;2022-11-18T10:41:13;11.52;;;7.85;;
9852;SDS011;4965;43.238;27.864;2022-11-18T10:43:45;11.75;;;7.68;;
9852;SDS011;4965;43.238;27.864;2022-11-18T10:46:16;16.38;;;8.05;;
9852;SDS011;4965;43.238;27.864;2022-11-18T10:48:45;15.80;;;7.72;;
9852;SDS011;4965;43.238;27.864;2022-11-18T10:51:19;14.95;;;7.65;;
9852;SDS011;4965;43.238;27.864;2022-11-18T10:53:49;10.40;;;8.02;;
9852;SDS011;4965;43.238;27.864;2022-11-18T10:56:16;15.73;;;8.63;;
9852;SDS011;4965;43.238;27.864;2022-11-18T10:58:43;10.80;;;8.68;;
9852;SDS011;4965;43.238;27.864;2022-11-18T11:01:14;14.57;;;9.00;;
9852;SDS011;4965;43.238;27.864;2022-11-18T11:03:51;13.18;;;9.20;;
9852;SDS011;4965;43.238;27.864;2022-11-18T11:06:27;18.27;;;10.77;;
9852;SDS011;4965;43.238;27.864;2022-11-18T11:08:59;14.70;;;9.65;;
9852;SDS011;4965;43.238;27.864;2022-11-18T11:11:29;16.15;;;9.43;;
9852;SDS011;4965;43.238;27.864;2022-11-18T11:14:03;18.15;;;9.80;;
9852;SDS011;4965;43.238;27.864;2022-11-18T11:16:49;14.95;;;9.93;;
9852;SDS011;4965;43.238;27.864;2022-11-18T11:19:22;13.35;;;9.85;;
9852;SDS011;4965;43.238;27.864;2022-11-18T11:21:53;14.85;;;10.20;;
9852;SDS011;4965;43.238;27.864;2022-11-18T11:24:23;14.60;;;9.30;;
9852;SDS011;4965;43.238;27.864;2022-11-18T11:26:53;17.10;;;9.75;;
9852;SDS011;4965;43.238;27.864;2022-11-18T11:29:35;21.38;;;10.02;;
9852;SDS011;4965;43.238;27.864;2022-11-18T11:32:18;13.63;;;9.10;;
9852;SDS011;4965;43.238;27.864;2022-11-18T11:34:56;13.75;;;8.63;;
9852;SDS011;4965;43.238;27.864;2022-11-18T11:37:35;14.27;;;10.25;;
9852;SDS011;4965;43.238;27.864;2022-11-18T11:40:21;12.00;;;9.82;;
9852;SDS011;4965;43.238;27.864;2022-11-18T11:42:56;16.15;;;9.95;;
9852;SDS011;4965;43.238;27.864;2022-11-18T11:45:35;14.52;;;9.05;;
9852;SDS011;4965;43.238;27.864;2022-11-18T11:48:16;16.52;;;9.95;;
9852;SDS011;4965;43.238;27.864;2022-11-18T11:50:54;17.30;;;10.98;;
9852;SDS011;4965;43.238;27.864;2022-11-18T11:56:22;16.05;;;11.43;;
9852;SDS011;4965;43.238;27.864;2022-11-18T11:59:02;18.13;;;11.75;;
9852;SDS011;4965;43.238;27.864;2022-11-18T12:01:38;16.67;;;11.93;;
9852;SDS011;4965;43.238;27.864;2022-11-18T12:04:14;16.95;;;12.10;;
9852;SDS011;4965;43.238;27.864;2022-11-18T12:06:52;17.30;;;11.88;;
9852;SDS011;4965;43.238;27.864;2022-11-18T12:09:24;14.85;;;11.75;;
9852;SDS011;4965;43.238;27.864;2022-11-18T12:12:11;17.17;;;13.13;;
9852;SDS011;4965;43.238;27.864;2022-11-18T12:15:03;20.15;;;12.82;;
9852;SDS011;4965;43.238;27.864;2022-11-18T12:17:45;26.15;;;13.18;;
9852;SDS011;4965;43.238;27.864;2022-11-18T12:23:10;18.58;;;13.02;;
9852;SDS011;4965;43.238;27.864;2022-11-18T12:28:27;22.17;;;13.52;;
9852;SDS011;4965;43.238;27.864;2022-11-18T12:33:52;28.48;;;14.40;;
9852;SDS011;4965;43.238;27.864;2022-11-18T12:36:24;24.90;;;14.30;;
9852;SDS011;4965;43.238;27.864;2022-11-18T12:38:52;23.92;;;14.55;;
9852;SDS011;4965;43.238;27.864;2022-11-18T12:44:37;20.10;;;14.82;;
9852;SDS011;4965;43.238;27.864;2022-11-18T12:47:05;20.83;;;14.45;;
9852;SDS011;4965;43.238;27.864;2022-11-18T12:52:52;17.95;;;14.25;;
9852;SDS011;4965;43.238;27.864;2022-11-18T12:55:24;27.27;;;15.63;;
9852;SDS011;4965;43.238;27.864;2022-11-18T12:57:56;21.33;;;15.27;;
9852;SDS011;4965;43.238;27.864;2022-11-18T13:00:29;18.67;;;13.70;;
9852;SDS011;4965;43.238;27.864;2022-11-18T13:03:20;18.80;;;14.15;;
9852;SDS011;4965;43.238;27.864;2022-11-18T13:05:49;25.45;;;14.90;;
9852;SDS011;4965;43.238;27.864;2022-11-18T13:08:23;32.25;;;15.85;;
9852;SDS011;4965;43.238;27.864;2022-11-18T13:10:52;22.55;;;16.10;;
9852;SDS011;4965;43.238;27.864;2022-11-18T13:13:41;24.08;;;17.27;;
9852;SDS011;4965;43.238;27.864;2022-11-18T13:16:16;23.08;;;16.35;;
9852;SDS011;4965;43.238;27.864;2022-11-18T13:19:03;25.58;;;17.52;;
9852;SDS011;4965;43.238;27.864;2022-11-18T13:21:30;27.80;;;17.55;;
9852;SDS011;4965;43.238;27.864;2022-11-18T13:24:15;28.25;;;18.08;;
9852;SDS011;4965;43.238;27.864;2022-11-18T13:26:43;29.05;;;18.27;;
9852;SDS011;4965;43.238;27.864;2022-11-18T13:29:14;24.70;;;16.98;;
9852;SDS011;4965;43.238;27.864;2022-11-18T13:32:02;30.38;;;19.52;;
9852;SDS011;4965;43.238;27.864;2022-11-18T13:34:44;27.73;;;21.13;;
9852;SDS011;4965;43.238;27.864;2022-11-18T13:37:14;39.20;;;25.02;;
9852;SDS011;4965;43.238;27.864;2022-11-18T13:39:44;36.15;;;29.92;;
9852;SDS011;4965;43.238;27.864;2022-11-18T13:42:15;38.83;;;28.08;;
9852;SDS011;4965;43.238;27.864;2022-11-18T13:44:44;41.67;;;27.42;;
9852;SDS011;4965;43.238;27.864;2022-11-18T13:47:20;38.33;;;27.42;;
9852;SDS011;4965;43.238;27.864;2022-11-18T13:49:56;40.45;;;28.33;;
9852;SDS011;4965;43.238;27.864;2022-11-18T13:52:37;38.40;;;28.00;;
9852;SDS011;4965;43.238;27.864;2022-11-18T13:55:07;42.80;;;29.92;;
9852;SDS011;4965;43.238;27.864;2022-11-18T13:57:40;34.22;;;27.35;;
9852;SDS011;4965;43.238;27.864;2022-11-18T14:00:19;53.95;;;32.75;;
9852;SDS011;4965;43.238;27.864;2022-11-18T14:02:52;40.17;;;30.40;;
9852;SDS011;4965;43.238;27.864;2022-11-18T14:05:22;39.30;;;28.92;;
9852;SDS011;4965;43.238;27.864;2022-11-18T14:07:54;41.75;;;29.45;;
9852;SDS011;4965;43.238;27.864;2022-11-18T14:10:28;39.33;;;29.42;;
9852;SDS011;4965;43.238;27.864;2022-11-18T14:12:56;42.92;;;31.70;;
9852;SDS011;4965;43.238;27.864;2022-11-18T14:15:32;46.95;;;31.63;;
9852;SDS011;4965;43.238;27.864;2022-11-18T14:18:02;36.53;;;27.67;;
9852;SDS011;4965;43.238;27.864;2022-11-18T14:20:48;43.08;;;27.65;;
9852;SDS011;4965;43.238;27.864;2022-11-18T14:23:16;47.42;;;29.35;;
9852;SDS011;4965;43.238;27.864;2022-11-18T14:25:44;51.50;;;32.53;;
9852;SDS011;4965;43.238;27.864;2022-11-18T14:28:12;37.35;;;27.35;;
9852;SDS011;4965;43.238;27.864;2022-11-18T14:30:54;48.13;;;33.25;;
9852;SDS011;4965;43.238;27.864;2022-11-18T14:33:24;45.95;;;31.40;;
9852;SDS011;4965;43.238;27.864;2022-11-18T14:35:53;44.60;;;33.00;;
9852;SDS011;4965;43.238;27.864;2022-11-18T14:38:23;47.75;;;33.10;;
9852;SDS011;4965;43.238;27.864;2022-11-18T14:40:55;44.53;;;32.85;;
9852;SDS011;4965;43.238;27.864;2022-11-18T14:43:24;54.05;;;34.78;;
9852;SDS011;4965;43.238;27.864;2022-11-18T14:45:51;54.03;;;32.67;;
9852;SDS011;4965;43.238;27.864;2022-11-18T14:48:22;49.00;;;36.20;;
9852;SDS011;4965;43.238;27.864;2022-11-18T14:50:51;49.22;;;33.75;;
9852;SDS011;4965;43.238;27.864;2022-11-18T14:53:18;45.53;;;31.83;;
9852;SDS011;4965;43.238;27.864;2022-11-18T14:55:47;50.25;;;32.92;;
9852;SDS011;4965;43.238;27.864;2022-11-18T14:58:15;48.83;;;31.40;;
9852;SDS011;4965;43.238;27.864;2022-11-18T15:00:43;44.67;;;32.15;;
9852;SDS011;4965;43.238;27.864;2022-11-18T15:03:12;43.25;;;30.35;;
9852;SDS011;4965;43.238;27.864;2022-11-18T15:05:40;45.65;;;29.38;;
9852;SDS011;4965;43.238;27.864;2022-11-18T15:08:07;47.08;;;31.58;;
9852;SDS011;4965;43.238;27.864;2022-11-18T15:10:34;56.15;;;32.50;;
9852;SDS011;4965;43.238;27.864;2022-11-18T15:13:01;52.10;;;31.35;;
9852;SDS011;4965;43.238;27.864;2022-11-18T15:15:28;44.40;;;28.23;;
9852;SDS011;4965;43.238;27.864;2022-11-18T15:17:55;49.15;;;31.48;;
9852;SDS011;4965;43.238;27.864;2022-11-18T15:20:22;41.17;;;29.65;;
9852;SDS011;4965;43.238;27.864;2022-11-18T15:22:50;46.88;;;29.58;;
9852;SDS011;4965;43.238;27.864;2022-11-18T15:25:17;37.50;;;27.10;;
9852;SDS011;4965;43.238;27.864;2022-11-18T15:27:44;43.05;;;27.65;;
9852;SDS011;4965;43.238;27.864;2022-11-18T15:30:11;35.67;;;26.50;;